sensor_id;sensor_type;location;lat;lon;timestamp;P1;durP1;ratioP1;P2;durP2;ratioP2
57329;SDS011;43163;51.032;18.280;2022-10-28T00:01:16;31.30;;;18.40;;
57329;SDS011;43163;51.032;18.280;2022-10-28T00:11:22;31.40;;;17.70;;
57329;SDS011;43163;51.032;18.280;2022-10-28T00:21:21;13.50;;;9.70;;
57329;SDS011;43163;51.032;18.280;2022-10-28T00:31:14;42.00;;;20.50;;
57329;SDS011;43163;51.032;18.280;2022-10-28T00:41:11;8.50;;;5.00;;
57329;SDS011;43163;51.032;18.280;2022-10-28T00:51:22;29.10;;;19.20;;
57329;SDS011;43163;51.032;18.280;2022-10-28T01:08:35;35.00;;;23.20;;
57329;SDS011;43163;51.032;18.280;2022-10-28T01:29:21;33.60;;;19.50;;
57329;SDS011;43163;51.032;18.280;2022-10-28T01:49:55;45.70;;;22.00;;
57329;SDS011;43163;51.032;18.280;2022-10-28T01:59:59;25.70;;;13.40;;
57329;SDS011;43163;51.032;18.280;2022-10-28T02:10:21;54.70;;;26.00;;
57329;SDS011;43163;51.032;18.280;2022-10-28T02:20:42;38.50;;;23.80;;
57329;SDS011;43163;51.032;18.280;2022-10-28T02:31:17;44.00;;;24.80;;
57329;SDS011;43163;51.032;18.280;2022-10-28T02:41:30;45.10;;;25.20;;
57329;SDS011;43163;51.032;18.280;2022-10-28T02:51:33;33.50;;;18.10;;
57329;SDS011;43163;51.032;18.280;2022-10-28T03:01:37;48.80;;;24.80;;
57329;SDS011;43163;51.032;18.280;2022-10-28T03:11:27;52.80;;;25.70;;
57329;SDS011;43163;51.032;18.280;2022-10-28T03:21:16;42.40;;;25.20;;
57329;SDS011;43163;51.032;18.280;2022-10-28T03:31:04;33.50;;;20.20;;
57329;SDS011;43163;51.032;18.280;2022-10-28T03:40:51;29.60;;;18.10;;
57329;SDS011;43163;51.032;18.280;2022-10-28T03:50:37;36.50;;;20.60;;
57329;SDS011;43163;51.032;18.280;2022-10-28T04:00:27;44.60;;;23.00;;
57329;SDS011;43163;51.032;18.280;2022-10-28T04:10:16;32.80;;;14.70;;
57329;SDS011;43163;51.032;18.280;2022-10-28T04:20:04;39.50;;;23.20;;
57329;SDS011;43163;51.032;18.280;2022-10-28T04:29:54;21.60;;;11.70;;
57329;SDS011;43163;51.032;18.280;2022-10-28T04:39:42;14.50;;;9.10;;
57329;SDS011;43163;51.032;18.280;2022-10-28T04:49:31;12.40;;;7.80;;
57329;SDS011;43163;51.032;18.280;2022-10-28T05:06:40;36.30;;;16.50;;
57329;SDS011;43163;51.032;18.280;2022-10-28T05:16:29;33.20;;;20.30;;
57329;SDS011;43163;51.032;18.280;2022-10-28T05:26:18;118.90;;;73.40;;
57329;SDS011;43163;51.032;18.280;2022-10-28T05:36:10;53.80;;;36.50;;
57329;SDS011;43163;51.032;18.280;2022-10-28T05:45:58;79.00;;;57.80;;
57329;SDS011;43163;51.032;18.280;2022-10-28T05:55:44;46.00;;;28.70;;
57329;SDS011;43163;51.032;18.280;2022-10-28T06:05:35;82.90;;;58.50;;
57329;SDS011;43163;51.032;18.280;2022-10-28T06:15:23;50.80;;;36.40;;
57329;SDS011;43163;51.032;18.280;2022-10-28T06:25:14;30.10;;;21.40;;
57329;SDS011;43163;51.032;18.280;2022-10-28T06:35:05;27.10;;;18.10;;
57329;SDS011;43163;51.032;18.280;2022-10-28T06:44:54;40.10;;;23.70;;
57329;SDS011;43163;51.032;18.280;2022-10-28T06:54:43;42.50;;;24.60;;
57329;SDS011;43163;51.032;18.280;2022-10-28T07:04:35;43.10;;;24.90;;
57329;SDS011;43163;51.032;18.280;2022-10-28T07:21:46;97.70;;;39.70;;
57329;SDS011;43163;51.032;18.280;2022-10-28T07:31:36;20.40;;;11.80;;
57329;SDS011;43163;51.032;18.280;2022-10-28T07:41:24;35.20;;;20.30;;
57329;SDS011;43163;51.032;18.280;2022-10-28T07:51:13;16.20;;;13.10;;
57329;SDS011;43163;51.032;18.280;2022-10-28T08:01:11;21.30;;;17.40;;
57329;SDS011;43163;51.032;18.280;2022-10-28T08:06:08;25.50;;;17.80;;
57329;SDS011;43163;51.032;18.280;2022-10-28T08:16:05;21.10;;;14.10;;
57329;SDS011;43163;51.032;18.280;2022-10-28T08:25:56;16.90;;;13.10;;
57329;SDS011;43163;51.032;18.280;2022-10-28T08:35:50;12.10;;;9.50;;
57329;SDS011;43163;51.032;18.280;2022-10-28T08:56:32;10.10;;;6.60;;
57329;SDS011;43163;51.032;18.280;2022-10-28T09:06:55;9.60;;;8.10;;
57329;SDS011;43163;51.032;18.280;2022-10-28T09:17:18;13.00;;;6.80;;
57329;SDS011;43163;51.032;18.280;2022-10-28T09:37:39;10.40;;;8.40;;
57329;SDS011;43163;51.032;18.280;2022-10-28T09:47:50;21.10;;;8.00;;
57329;SDS011;43163;51.032;18.280;2022-10-28T09:57:48;8.90;;;7.00;;
57329;SDS011;43163;51.032;18.280;2022-10-28T10:07:56;6.10;;;5.20;;
57329;SDS011;43163;51.032;18.280;2022-10-28T10:17:59;7.50;;;5.50;;
57329;SDS011;43163;51.032;18.280;2022-10-28T10:28:48;7.50;;;4.40;;
57329;SDS011;43163;51.032;18.280;2022-10-28T10:57:17;6.80;;;5.50;;
57329;SDS011;43163;51.032;18.280;2022-10-28T11:07:23;6.30;;;4.70;;
57329;SDS011;43163;51.032;18.280;2022-10-28T11:17:25;3.30;;;3.00;;
57329;SDS011;43163;51.032;18.280;2022-10-28T12:10:49;2.10;;;1.90;;
57329;SDS011;43163;51.032;18.280;2022-10-28T13:05:32;2.90;;;2.60;;
57329;SDS011;43163;51.032;18.280;2022-10-28T13:26:48;7.10;;;3.30;;
57329;SDS011;43163;51.032;18.280;2022-10-28T13:37:14;5.90;;;3.10;;
57329;SDS011;43163;51.032;18.280;2022-10-28T14:05:23;4.30;;;2.90;;
57329;SDS011;43163;51.032;18.280;2022-10-28T14:16:26;8.30;;;2.40;;
57329;SDS011;43163;51.032;18.280;2022-10-28T14:48:56;1.50;;;1.30;;
57329;SDS011;43163;51.032;18.280;2022-10-28T14:58:53;5.90;;;2.50;;
57329;SDS011;43163;51.032;18.280;2022-10-28T15:09:17;5.90;;;3.20;;
57329;SDS011;43163;51.032;18.280;2022-10-28T15:19:47;4.50;;;3.20;;
57329;SDS011;43163;51.032;18.280;2022-10-28T15:37:18;9.60;;;2.20;;
57329;SDS011;43163;51.032;18.280;2022-10-28T15:47:33;10.60;;;4.70;;
57329;SDS011;43163;51.032;18.280;2022-10-28T15:57:47;4.30;;;3.80;;
57329;SDS011;43163;51.032;18.280;2022-10-28T16:07:57;3.20;;;2.20;;
57329;SDS011;43163;51.032;18.280;2022-10-28T16:17:49;8.90;;;5.90;;
57329;SDS011;43163;51.032;18.280;2022-10-28T16:27:46;8.20;;;6.70;;
57329;SDS011;43163;51.032;18.280;2022-10-28T16:37:43;14.70;;;9.60;;
57329;SDS011;43163;51.032;18.280;2022-10-28T16:47:44;7.20;;;6.00;;
57329;SDS011;43163;51.032;18.280;2022-10-28T16:57:40;7.10;;;5.30;;
57329;SDS011;43163;51.032;18.280;2022-10-28T17:07:43;14.90;;;6.90;;
57329;SDS011;43163;51.032;18.280;2022-10-28T17:17:33;10.10;;;7.40;;
57329;SDS011;43163;51.032;18.280;2022-10-28T17:27:24;12.30;;;6.90;;
57329;SDS011;43163;51.032;18.280;2022-10-28T17:37:13;7.80;;;5.70;;
57329;SDS011;43163;51.032;18.280;2022-10-28T17:47:02;11.40;;;7.50;;
57329;SDS011;43163;51.032;18.280;2022-10-28T17:56:59;11.60;;;6.90;;
57329;SDS011;43163;51.032;18.280;2022-10-28T18:06:53;10.80;;;7.50;;
57329;SDS011;43163;51.032;18.280;2022-10-28T18:16:44;13.70;;;9.40;;
57329;SDS011;43163;51.032;18.280;2022-10-28T18:26:33;9.20;;;7.00;;
57329;SDS011;43163;51.032;18.280;2022-10-28T18:36:30;11.20;;;8.50;;
57329;SDS011;43163;51.032;18.280;2022-10-28T18:46:22;7.40;;;3.90;;
57329;SDS011;43163;51.032;18.280;2022-10-28T18:56:12;12.00;;;8.00;;
57329;SDS011;43163;51.032;18.280;2022-10-28T19:06:05;9.30;;;7.50;;
57329;SDS011;43163;51.032;18.280;2022-10-28T19:16:05;9.90;;;7.40;;
57329;SDS011;43163;51.032;18.280;2022-10-28T19:26:06;13.40;;;7.90;;
57329;SDS011;43163;51.032;18.280;2022-10-28T19:46:06;14.10;;;9.00;;
57329;SDS011;43163;51.032;18.280;2022-10-28T19:55:55;11.30;;;6.90;;
57329;SDS011;43163;51.032;18.280;2022-10-28T20:05:58;8.10;;;5.20;;
57329;SDS011;43163;51.032;18.280;2022-10-28T20:16:04;19.70;;;11.80;;
57329;SDS011;43163;51.032;18.280;2022-10-28T20:26:04;11.90;;;9.00;;
57329;SDS011;43163;51.032;18.280;2022-10-28T20:35:55;11.50;;;7.40;;
57329;SDS011;43163;51.032;18.280;2022-10-28T20:56:02;15.00;;;10.80;;
57329;SDS011;43163;51.032;18.280;2022-10-28T21:05:57;14.50;;;8.60;;
57329;SDS011;43163;51.032;18.280;2022-10-28T21:15:43;10.40;;;8.30;;
57329;SDS011;43163;51.032;18.280;2022-10-28T21:25:33;25.70;;;9.50;;
57329;SDS011;43163;51.032;18.280;2022-10-28T21:35:22;18.60;;;12.10;;
57329;SDS011;43163;51.032;18.280;2022-10-28T21:45:14;19.70;;;10.40;;
57329;SDS011;43163;51.032;18.280;2022-10-28T21:55:03;10.10;;;5.80;;
57329;SDS011;43163;51.032;18.280;2022-10-28T22:04:52;17.50;;;10.70;;
57329;SDS011;43163;51.032;18.280;2022-10-28T22:14:40;18.60;;;9.10;;
57329;SDS011;43163;51.032;18.280;2022-10-28T22:24:28;12.60;;;7.70;;
57329;SDS011;43163;51.032;18.280;2022-10-28T22:34:18;7.50;;;6.70;;
57329;SDS011;43163;51.032;18.280;2022-10-28T22:44:07;19.00;;;10.10;;
57329;SDS011;43163;51.032;18.280;2022-10-28T22:53:56;15.50;;;8.60;;
57329;SDS011;43163;51.032;18.280;2022-10-28T23:03:49;14.50;;;8.70;;
57329;SDS011;43163;51.032;18.280;2022-10-28T23:21:15;12.60;;;9.10;;
57329;SDS011;43163;51.032;18.280;2022-10-28T23:31:08;26.80;;;11.90;;
57329;SDS011;43163;51.032;18.280;2022-10-28T23:41:03;22.10;;;14.50;;
57329;SDS011;43163;51.032;18.280;2022-10-28T23:50:53;17.50;;;11.60;;
